sensor_id;sensor_type;location;lat;lon;timestamp;pressure;altitude;pressure_sealevel;temperature;humidity
74790;BME280;63318;52.406;13.416;2023-03-12T00:01:11;100664.94;;;-0.74;78.64
74790;BME280;63318;52.406;13.416;2023-03-12T00:03:39;100665.98;;;-0.75;78.67
74790;BME280;63318;52.406;13.416;2023-03-12T00:06:08;100664.30;;;-0.74;78.56
74790;BME280;63318;52.406;13.416;2023-03-12T00:08:37;100663.84;;;-0.75;78.46
74790;BME280;63318;52.406;13.416;2023-03-12T00:11:11;100665.39;;;-0.74;78.45
74790;BME280;63318;52.406;13.416;2023-03-12T00:13:40;100668.11;;;-0.74;78.46
74790;BME280;63318;52.406;13.416;2023-03-12T00:16:11;100665.39;;;-0.74;78.39
74790;BME280;63318;52.406;13.416;2023-03-12T00:18:40;100665.65;;;-0.75;78.35
74790;BME280;63318;52.406;13.416;2023-03-12T00:21:09;100664.02;;;-0.75;78.44
74790;BME280;63318;52.406;13.416;2023-03-12T00:23:38;100663.97;;;-0.75;78.19
74790;BME280;63318;52.406;13.416;2023-03-12T00:26:09;100666.29;;;-0.75;78.36
74790;BME280;63318;52.406;13.416;2023-03-12T00:28:38;100664.61;;;-0.75;78.25
74790;BME280;63318;52.406;13.416;2023-03-12T00:31:14;100667.15;;;-0.75;78.21
74790;BME280;63318;52.406;13.416;2023-03-12T00:33:43;100673.58;;;-0.74;78.43
74790;BME280;63318;52.406;13.416;2023-03-12T00:36:12;100672.88;;;-0.75;78.33
74790;BME280;63318;52.406;13.416;2023-03-12T00:38:41;100668.26;;;-0.74;78.34
74790;BME280;63318;52.406;13.416;2023-03-12T00:41:09;100670.06;;;-0.75;78.23
74790;BME280;63318;52.406;13.416;2023-03-12T00:43:38;100671.27;;;-0.75;78.32
74790;BME280;63318;52.406;13.416;2023-03-12T00:46:06;100664.18;;;-0.75;78.25
74790;BME280;63318;52.406;13.416;2023-03-12T00:48:35;100670.80;;;-0.74;78.40
74790;BME280;63318;52.406;13.416;2023-03-12T00:51:03;100668.24;;;-0.75;78.34
74790;BME280;63318;52.406;13.416;2023-03-12T00:53:32;100668.29;;;-0.76;78.32
74790;BME280;63318;52.406;13.416;2023-03-12T00:56:00;100669.70;;;-0.77;78.22
74790;BME280;63318;52.406;13.416;2023-03-12T00:58:29;100670.75;;;-0.76;78.25
74790;BME280;63318;52.406;13.416;2023-03-12T01:00:57;100673.02;;;-0.76;78.17
74790;BME280;63318;52.406;13.416;2023-03-12T01:03:26;100673.16;;;-0.75;78.36
74790;BME280;63318;52.406;13.416;2023-03-12T01:05:55;100682.84;;;-0.74;78.39
74790;BME280;63318;52.406;13.416;2023-03-12T01:08:24;100683.72;;;-0.74;78.17
74790;BME280;63318;52.406;13.416;2023-03-12T01:10:52;100686.04;;;-0.74;78.09
74790;BME280;63318;52.406;13.416;2023-03-12T01:13:21;100688.90;;;-0.73;78.00
74790;BME280;63318;52.406;13.416;2023-03-12T01:15:50;100690.67;;;-0.73;78.09
74790;BME280;63318;52.406;13.416;2023-03-12T01:18:18;100688.61;;;-0.71;78.04
74790;BME280;63318;52.406;13.416;2023-03-12T01:20:46;100691.13;;;-0.70;78.18
74790;BME280;63318;52.406;13.416;2023-03-12T01:23:15;100697.02;;;-0.67;78.16
74790;BME280;63318;52.406;13.416;2023-03-12T01:25:44;100697.91;;;-0.64;78.54
74790;BME280;63318;52.406;13.416;2023-03-12T01:28:12;100696.75;;;-0.62;78.17
74790;BME280;63318;52.406;13.416;2023-03-12T01:30:40;100697.81;;;-0.60;78.30
74790;BME280;63318;52.406;13.416;2023-03-12T01:33:09;100698.88;;;-0.57;78.61
74790;BME280;63318;52.406;13.416;2023-03-12T01:35:39;100700.36;;;-0.53;78.30
74790;BME280;63318;52.406;13.416;2023-03-12T01:38:08;100704.02;;;-0.50;78.60
74790;BME280;63318;52.406;13.416;2023-03-12T01:40:39;100700.96;;;-0.48;77.96
74790;BME280;63318;52.406;13.416;2023-03-12T01:43:31;100700.98;;;-0.47;78.38
74790;BME280;63318;52.406;13.416;2023-03-12T01:46:21;100705.52;;;-0.44;78.30
74790;BME280;63318;52.406;13.416;2023-03-12T01:48:52;100705.98;;;-0.42;77.95
74790;BME280;63318;52.406;13.416;2023-03-12T01:51:22;100708.86;;;-0.40;77.87
74790;BME280;63318;52.406;13.416;2023-03-12T01:53:54;100713.84;;;-0.38;78.11
74790;BME280;63318;52.406;13.416;2023-03-12T01:56:27;100712.30;;;-0.36;77.97
74790;BME280;63318;52.406;13.416;2023-03-12T01:58:57;100715.80;;;-0.34;78.08
74790;BME280;63318;52.406;13.416;2023-03-12T02:01:33;100717.52;;;-0.32;77.98
74790;BME280;63318;52.406;13.416;2023-03-12T02:04:02;100720.05;;;-0.29;78.21
74790;BME280;63318;52.406;13.416;2023-03-12T02:06:36;100718.77;;;-0.26;78.01
74790;BME280;63318;52.406;13.416;2023-03-12T02:09:06;100716.21;;;-0.25;78.59
74790;BME280;63318;52.406;13.416;2023-03-12T02:11:34;100721.67;;;-0.22;78.03
74790;BME280;63318;52.406;13.416;2023-03-12T02:14:03;100724.06;;;-0.21;78.25
74790;BME280;63318;52.406;13.416;2023-03-12T02:16:31;100720.05;;;-0.18;78.23
74790;BME280;63318;52.406;13.416;2023-03-12T02:19:01;100723.89;;;-0.16;78.00
74790;BME280;63318;52.406;13.416;2023-03-12T02:21:33;100723.21;;;-0.14;78.31
74790;BME280;63318;52.406;13.416;2023-03-12T02:24:07;100721.88;;;-0.11;78.06
74790;BME280;63318;52.406;13.416;2023-03-12T02:26:39;100728.69;;;-0.08;78.06
74790;BME280;63318;52.406;13.416;2023-03-12T02:29:09;100734.12;;;-0.06;78.08
74790;BME280;63318;52.406;13.416;2023-03-12T02:31:39;100736.65;;;-0.03;78.11
74790;BME280;63318;52.406;13.416;2023-03-12T02:34:10;100738.59;;;0.01;78.07
74790;BME280;63318;52.406;13.416;2023-03-12T02:36:38;100741.07;;;0.03;77.98
74790;BME280;63318;52.406;13.416;2023-03-12T02:39:08;100741.21;;;0.04;78.27
74790;BME280;63318;52.406;13.416;2023-03-12T02:41:40;100748.39;;;0.06;78.05
74790;BME280;63318;52.406;13.416;2023-03-12T02:44:13;100751.80;;;0.08;78.00
74790;BME280;63318;52.406;13.416;2023-03-12T02:46:45;100754.50;;;0.10;77.49
74790;BME280;63318;52.406;13.416;2023-03-12T02:49:15;100762.98;;;0.11;78.31
74790;BME280;63318;52.406;13.416;2023-03-12T02:51:44;100764.29;;;0.13;77.98
74790;BME280;63318;52.406;13.416;2023-03-12T02:54:14;100763.28;;;0.13;78.20
74790;BME280;63318;52.406;13.416;2023-03-12T02:56:43;100767.16;;;0.16;78.07
74790;BME280;63318;52.406;13.416;2023-03-12T02:59:15;100766.98;;;0.17;78.05
74790;BME280;63318;52.406;13.416;2023-03-12T03:01:44;100767.54;;;0.18;77.86
74790;BME280;63318;52.406;13.416;2023-03-12T03:04:13;100773.96;;;0.19;78.17
74790;BME280;63318;52.406;13.416;2023-03-12T03:06:43;100768.76;;;0.20;77.96
74790;BME280;63318;52.406;13.416;2023-03-12T03:09:11;100771.96;;;0.20;77.68
74790;BME280;63318;52.406;13.416;2023-03-12T03:11:40;100772.58;;;0.21;77.97
74790;BME280;63318;52.406;13.416;2023-03-12T03:14:08;100774.02;;;0.21;78.07
74790;BME280;63318;52.406;13.416;2023-03-12T03:16:36;100776.86;;;0.22;77.89
74790;BME280;63318;52.406;13.416;2023-03-12T03:19:05;100780.02;;;0.21;77.98
74790;BME280;63318;52.406;13.416;2023-03-12T03:21:34;100777.77;;;0.21;77.90
74790;BME280;63318;52.406;13.416;2023-03-12T03:24:02;100778.79;;;0.20;77.92
74790;BME280;63318;52.406;13.416;2023-03-12T03:26:31;100779.38;;;0.18;77.90
74790;BME280;63318;52.406;13.416;2023-03-12T03:28:59;100782.54;;;0.16;77.46
74790;BME280;63318;52.406;13.416;2023-03-12T03:31:27;100786.19;;;0.15;77.98
74790;BME280;63318;52.406;13.416;2023-03-12T03:33:56;100789.06;;;0.12;77.63
74790;BME280;63318;52.406;13.416;2023-03-12T03:36:24;100793.52;;;0.11;77.90
74790;BME280;63318;52.406;13.416;2023-03-12T03:38:52;100793.96;;;0.07;77.69
74790;BME280;63318;52.406;13.416;2023-03-12T03:41:21;100795.85;;;0.04;78.03
74790;BME280;63318;52.406;13.416;2023-03-12T03:43:49;100797.98;;;0.00;77.53
74790;BME280;63318;52.406;13.416;2023-03-12T03:46:18;100800.91;;;-0.03;78.02
74790;BME280;63318;52.406;13.416;2023-03-12T03:48:46;100799.00;;;-0.06;77.69
74790;BME280;63318;52.406;13.416;2023-03-12T03:51:15;100801.85;;;-0.09;77.86
74790;BME280;63318;52.406;13.416;2023-03-12T03:53:44;100802.09;;;-0.11;77.90
74790;BME280;63318;52.406;13.416;2023-03-12T03:56:14;100801.58;;;-0.14;78.00
74790;BME280;63318;52.406;13.416;2023-03-12T03:58:43;100806.77;;;-0.18;78.29
74790;BME280;63318;52.406;13.416;2023-03-12T04:01:15;100808.42;;;-0.21;78.27
74790;BME280;63318;52.406;13.416;2023-03-12T04:03:43;100817.00;;;-0.22;77.72
74790;BME280;63318;52.406;13.416;2023-03-12T04:06:12;100811.44;;;-0.24;78.18
74790;BME280;63318;52.406;13.416;2023-03-12T04:08:40;100817.18;;;-0.26;77.97
74790;BME280;63318;52.406;13.416;2023-03-12T04:11:11;100819.52;;;-0.29;78.10
74790;BME280;63318;52.406;13.416;2023-03-12T04:13:39;100823.84;;;-0.31;77.80
74790;BME280;63318;52.406;13.416;2023-03-12T04:16:10;100823.89;;;-0.34;78.01
74790;BME280;63318;52.406;13.416;2023-03-12T04:18:38;100823.00;;;-0.37;77.72
74790;BME280;63318;52.406;13.416;2023-03-12T04:21:09;100825.16;;;-0.40;78.47
74790;BME280;63318;52.406;13.416;2023-03-12T04:23:38;100824.65;;;-0.42;78.33
74790;BME280;63318;52.406;13.416;2023-03-12T04:26:07;100827.45;;;-0.44;78.01
74790;BME280;63318;52.406;13.416;2023-03-12T04:28:36;100827.52;;;-0.46;78.20
74790;BME280;63318;52.406;13.416;2023-03-12T04:31:06;100827.76;;;-0.49;78.49
74790;BME280;63318;52.406;13.416;2023-03-12T04:33:37;100830.41;;;-0.53;78.10
74790;BME280;63318;52.406;13.416;2023-03-12T04:36:06;100832.16;;;-0.56;78.36
74790;BME280;63318;52.406;13.416;2023-03-12T04:38:36;100832.39;;;-0.60;78.64
74790;BME280;63318;52.406;13.416;2023-03-12T04:41:06;100832.97;;;-0.61;78.40
74790;BME280;63318;52.406;13.416;2023-03-12T04:43:35;100834.84;;;-0.63;78.50
74790;BME280;63318;52.406;13.416;2023-03-12T04:46:04;100835.16;;;-0.65;78.64
74790;BME280;63318;52.406;13.416;2023-03-12T04:48:33;100838.42;;;-0.67;78.46
74790;BME280;63318;52.406;13.416;2023-03-12T04:51:02;100833.84;;;-0.69;78.79
74790;BME280;63318;52.406;13.416;2023-03-12T04:53:31;100835.20;;;-0.72;78.57
74790;BME280;63318;52.406;13.416;2023-03-12T04:56:00;100839.77;;;-0.73;79.03
74790;BME280;63318;52.406;13.416;2023-03-12T04:58:29;100843.45;;;-0.73;78.83
74790;BME280;63318;52.406;13.416;2023-03-12T05:00:57;100843.81;;;-0.75;78.87
74790;BME280;63318;52.406;13.416;2023-03-12T05:03:26;100845.45;;;-0.76;79.05
74790;BME280;63318;52.406;13.416;2023-03-12T05:05:55;100847.33;;;-0.77;78.85
74790;BME280;63318;52.406;13.416;2023-03-12T05:08:23;100847.17;;;-0.79;79.04
74790;BME280;63318;52.406;13.416;2023-03-12T05:10:52;100849.95;;;-0.80;79.31
74790;BME280;63318;52.406;13.416;2023-03-12T05:13:21;100853.75;;;-0.81;78.95
74790;BME280;63318;52.406;13.416;2023-03-12T05:15:50;100860.07;;;-0.84;79.14
74790;BME280;63318;52.406;13.416;2023-03-12T05:18:18;100860.21;;;-0.86;79.32
74790;BME280;63318;52.406;13.416;2023-03-12T05:20:47;100859.06;;;-0.88;78.99
74790;BME280;63318;52.406;13.416;2023-03-12T05:23:24;100857.53;;;-0.91;79.24
74790;BME280;63318;52.406;13.416;2023-03-12T05:25:52;100857.02;;;-0.92;79.43
74790;BME280;63318;52.406;13.416;2023-03-12T05:28:22;100861.72;;;-0.93;79.57
74790;BME280;63318;52.406;13.416;2023-03-12T05:30:50;100860.64;;;-0.95;79.38
74790;BME280;63318;52.406;13.416;2023-03-12T05:33:18;100860.46;;;-0.96;79.19
74790;BME280;63318;52.406;13.416;2023-03-12T05:35:46;100862.16;;;-0.98;79.30
74790;BME280;63318;52.406;13.416;2023-03-12T05:38:15;100862.79;;;-1.00;79.45
74790;BME280;63318;52.406;13.416;2023-03-12T05:40:49;100862.23;;;-1.01;79.81
74790;BME280;63318;52.406;13.416;2023-03-12T05:43:17;100860.14;;;-1.04;79.65
74790;BME280;63318;52.406;13.416;2023-03-12T05:45:46;100863.61;;;-1.05;79.48
74790;BME280;63318;52.406;13.416;2023-03-12T05:48:15;100857.90;;;-1.06;79.54
74790;BME280;63318;52.406;13.416;2023-03-12T05:50:43;100858.19;;;-1.07;79.72
74790;BME280;63318;52.406;13.416;2023-03-12T05:53:12;100854.88;;;-1.08;79.79
74790;BME280;63318;52.406;13.416;2023-03-12T05:55:41;100854.73;;;-1.10;79.90
74790;BME280;63318;52.406;13.416;2023-03-12T05:58:10;100858.12;;;-1.11;79.79
74790;BME280;63318;52.406;13.416;2023-03-12T06:00:39;100862.55;;;-1.11;79.81
74790;BME280;63318;52.406;13.416;2023-03-12T06:03:08;100865.06;;;-1.12;80.17
74790;BME280;63318;52.406;13.416;2023-03-12T06:05:37;100868.20;;;-1.13;79.88
74790;BME280;63318;52.406;13.416;2023-03-12T06:08:06;100871.71;;;-1.13;79.72
74790;BME280;63318;52.406;13.416;2023-03-12T06:10:35;100872.12;;;-1.13;79.76
74790;BME280;63318;52.406;13.416;2023-03-12T06:13:04;100873.08;;;-1.12;79.83
74790;BME280;63318;52.406;13.416;2023-03-12T06:15:33;100875.13;;;-1.11;80.27
74790;BME280;63318;52.406;13.416;2023-03-12T06:18:01;100870.45;;;-1.10;79.78
74790;BME280;63318;52.406;13.416;2023-03-12T06:20:30;100874.38;;;-1.08;79.96
74790;BME280;63318;52.406;13.416;2023-03-12T06:22:59;100876.64;;;-1.06;79.96
74790;BME280;63318;52.406;13.416;2023-03-12T06:25:27;100880.16;;;-1.04;80.03
74790;BME280;63318;52.406;13.416;2023-03-12T06:27:56;100881.22;;;-1.01;80.18
74790;BME280;63318;52.406;13.416;2023-03-12T06:30:25;100884.27;;;-0.98;80.11
74790;BME280;63318;52.406;13.416;2023-03-12T06:32:53;100884.21;;;-0.95;80.14
74790;BME280;63318;52.406;13.416;2023-03-12T06:35:21;100881.78;;;-0.91;80.26
74790;BME280;63318;52.406;13.416;2023-03-12T06:37:49;100881.38;;;-0.88;80.19
74790;BME280;63318;52.406;13.416;2023-03-12T06:40:18;100884.80;;;-0.85;80.11
74790;BME280;63318;52.406;13.416;2023-03-12T06:42:46;100882.48;;;-0.81;80.19
74790;BME280;63318;52.406;13.416;2023-03-12T06:45:15;100882.77;;;-0.78;79.76
74790;BME280;63318;52.406;13.416;2023-03-12T06:47:43;100881.55;;;-0.74;80.03
74790;BME280;63318;52.406;13.416;2023-03-12T06:50:13;100884.94;;;-0.70;79.98
74790;BME280;63318;52.406;13.416;2023-03-12T06:52:41;100890.35;;;-0.63;79.87
74790;BME280;63318;52.406;13.416;2023-03-12T06:55:10;100890.45;;;-0.57;79.66
74790;BME280;63318;52.406;13.416;2023-03-12T06:57:38;100890.66;;;-0.49;79.90
74790;BME280;63318;52.406;13.416;2023-03-12T07:00:10;100891.72;;;-0.44;79.94
74790;BME280;63318;52.406;13.416;2023-03-12T07:02:38;100893.48;;;-0.38;79.51
74790;BME280;63318;52.406;13.416;2023-03-12T07:05:09;100894.90;;;-0.33;79.48
74790;BME280;63318;52.406;13.416;2023-03-12T07:07:37;100895.19;;;-0.28;79.19
74790;BME280;63318;52.406;13.416;2023-03-12T07:10:08;100896.64;;;-0.23;79.61
74790;BME280;63318;52.406;13.416;2023-03-12T07:12:37;100894.28;;;-0.16;79.71
74790;BME280;63318;52.406;13.416;2023-03-12T07:15:07;100893.27;;;-0.10;79.51
74790;BME280;63318;52.406;13.416;2023-03-12T07:17:36;100894.92;;;-0.02;79.07
74790;BME280;63318;52.406;13.416;2023-03-12T07:20:06;100892.72;;;0.05;79.02
74790;BME280;63318;52.406;13.416;2023-03-12T07:22:34;100893.94;;;0.13;79.32
74790;BME280;63318;52.406;13.416;2023-03-12T07:25:04;100896.48;;;0.22;78.94
74790;BME280;63318;52.406;13.416;2023-03-12T07:27:32;100899.14;;;0.32;78.01
74790;BME280;63318;52.406;13.416;2023-03-12T07:30:00;100899.86;;;0.41;78.43
74790;BME280;63318;52.406;13.416;2023-03-12T07:32:30;100902.21;;;0.52;78.43
74790;BME280;63318;52.406;13.416;2023-03-12T07:34:58;100902.59;;;0.64;77.68
74790;BME280;63318;52.406;13.416;2023-03-12T07:37:27;100901.98;;;0.74;77.95
74790;BME280;63318;52.406;13.416;2023-03-12T07:39:55;100906.13;;;0.84;78.15
74790;BME280;63318;52.406;13.416;2023-03-12T07:42:24;100909.13;;;0.92;78.10
74790;BME280;63318;52.406;13.416;2023-03-12T07:44:52;100910.02;;;1.02;77.77
74790;BME280;63318;52.406;13.416;2023-03-12T07:47:21;100908.06;;;1.12;77.75
74790;BME280;63318;52.406;13.416;2023-03-12T07:49:49;100906.05;;;1.20;77.32
74790;BME280;63318;52.406;13.416;2023-03-12T07:52:18;100906.02;;;1.29;77.55
74790;BME280;63318;52.406;13.416;2023-03-12T07:54:47;100908.38;;;1.35;77.41
74790;BME280;63318;52.406;13.416;2023-03-12T07:57:15;100909.05;;;1.39;77.40
74790;BME280;63318;52.406;13.416;2023-03-12T07:59:43;100909.01;;;1.42;77.09
74790;BME280;63318;52.406;13.416;2023-03-12T08:02:12;100912.73;;;1.46;76.77
74790;BME280;63318;52.406;13.416;2023-03-12T08:04:41;100914.27;;;1.48;77.26
74790;BME280;63318;52.406;13.416;2023-03-12T08:07:09;100913.31;;;1.48;77.09
74790;BME280;63318;52.406;13.416;2023-03-12T08:09:38;100915.41;;;1.54;77.00
74790;BME280;63318;52.406;13.416;2023-03-12T08:12:09;100917.46;;;1.65;77.54
74790;BME280;63318;52.406;13.416;2023-03-12T08:14:38;100920.52;;;1.79;76.99
74790;BME280;63318;52.406;13.416;2023-03-12T08:17:07;100916.28;;;1.95;77.16
74790;BME280;63318;52.406;13.416;2023-03-12T08:19:35;100918.73;;;2.12;76.56
74790;BME280;63318;52.406;13.416;2023-03-12T08:22:03;100922.59;;;2.29;76.73
74790;BME280;63318;52.406;13.416;2023-03-12T08:24:34;100919.74;;;2.48;75.96
74790;BME280;63318;52.406;13.416;2023-03-12T08:27:02;100922.67;;;2.68;76.05
74790;BME280;63318;52.406;13.416;2023-03-12T08:29:31;100923.10;;;2.87;75.85
74790;BME280;63318;52.406;13.416;2023-03-12T08:31:59;100920.41;;;3.04;75.84
74790;BME280;63318;52.406;13.416;2023-03-12T08:34:28;100926.23;;;3.18;75.42
74790;BME280;63318;52.406;13.416;2023-03-12T08:37:01;100923.73;;;3.31;74.22
74790;BME280;63318;52.406;13.416;2023-03-12T08:39:31;100928.38;;;3.43;74.11
74790;BME280;63318;52.406;13.416;2023-03-12T08:42:00;100925.92;;;3.57;74.02
74790;BME280;63318;52.406;13.416;2023-03-12T08:44:29;100924.55;;;3.74;74.31
74790;BME280;63318;52.406;13.416;2023-03-12T08:46:58;100919.63;;;3.89;74.60
74790;BME280;63318;52.406;13.416;2023-03-12T08:49:26;100915.52;;;4.02;73.81
74790;BME280;63318;52.406;13.416;2023-03-12T08:51:55;100910.58;;;4.18;73.95
74790;BME280;63318;52.406;13.416;2023-03-12T08:54:23;100910.41;;;4.33;73.80
74790;BME280;63318;52.406;13.416;2023-03-12T08:56:55;100910.41;;;4.44;73.65
74790;BME280;63318;52.406;13.416;2023-03-12T08:59:23;100908.69;;;4.58;73.47
74790;BME280;63318;52.406;13.416;2023-03-12T09:01:52;100903.80;;;4.70;72.79
74790;BME280;63318;52.406;13.416;2023-03-12T09:04:20;100908.40;;;4.84;72.51
74790;BME280;63318;52.406;13.416;2023-03-12T09:06:50;100907.89;;;4.99;72.55
74790;BME280;63318;52.406;13.416;2023-03-12T09:09:18;100907.98;;;5.11;72.56
74790;BME280;63318;52.406;13.416;2023-03-12T09:11:46;100909.77;;;5.25;71.31
74790;BME280;63318;52.406;13.416;2023-03-12T09:14:15;100909.08;;;5.35;70.62
74790;BME280;63318;52.406;13.416;2023-03-12T09:16:43;100900.38;;;5.48;71.13
74790;BME280;63318;52.406;13.416;2023-03-12T09:19:11;100894.40;;;5.59;70.47
74790;BME280;63318;52.406;13.416;2023-03-12T09:21:40;100892.67;;;5.75;70.52
74790;BME280;63318;52.406;13.416;2023-03-12T09:24:10;100890.93;;;5.88;70.70
74790;BME280;63318;52.406;13.416;2023-03-12T09:26:38;100890.40;;;5.99;70.49
74790;BME280;63318;52.406;13.416;2023-03-12T09:29:07;100887.33;;;6.09;70.50
74790;BME280;63318;52.406;13.416;2023-03-12T09:31:35;100884.05;;;6.18;69.77
74790;BME280;63318;52.406;13.416;2023-03-12T09:34:04;100882.83;;;6.26;69.60
74790;BME280;63318;52.406;13.416;2023-03-12T09:36:33;100885.20;;;6.33;68.91
74790;BME280;63318;52.406;13.416;2023-03-12T09:39:02;100885.57;;;6.35;68.66
74790;BME280;63318;52.406;13.416;2023-03-12T09:41:34;100885.30;;;6.33;67.77
74790;BME280;63318;52.406;13.416;2023-03-12T09:44:06;100887.50;;;6.45;68.04
74790;BME280;63318;52.406;13.416;2023-03-12T09:46:42;100888.58;;;6.60;68.48
74790;BME280;63318;52.406;13.416;2023-03-12T09:49:20;100883.84;;;6.71;67.85
74790;BME280;63318;52.406;13.416;2023-03-12T09:51:58;100884.24;;;6.83;67.89
74790;BME280;63318;52.406;13.416;2023-03-12T09:54:33;100882.77;;;7.00;68.26
74790;BME280;63318;52.406;13.416;2023-03-12T09:57:12;100884.13;;;7.20;67.90
74790;BME280;63318;52.406;13.416;2023-03-12T09:59:42;100884.16;;;7.37;65.94
74790;BME280;63318;52.406;13.416;2023-03-12T10:02:28;100882.08;;;7.48;65.65
74790;BME280;63318;52.406;13.416;2023-03-12T10:05:05;100876.48;;;7.49;66.29
74790;BME280;63318;52.406;13.416;2023-03-12T10:07:36;100872.13;;;7.54;65.82
74790;BME280;63318;52.406;13.416;2023-03-12T10:10:33;100867.70;;;7.64;66.53
74790;BME280;63318;52.406;13.416;2023-03-12T10:13:14;100866.70;;;7.68;65.27
74790;BME280;63318;52.406;13.416;2023-03-12T10:15:51;100864.05;;;7.61;63.85
74790;BME280;63318;52.406;13.416;2023-03-12T10:18:29;100858.23;;;7.53;64.36
74790;BME280;63318;52.406;13.416;2023-03-12T10:21:13;100852.23;;;7.54;63.09
74790;BME280;63318;52.406;13.416;2023-03-12T10:23:53;100851.32;;;7.56;65.39
74790;BME280;63318;52.406;13.416;2023-03-12T10:26:24;100851.92;;;7.59;64.27
74790;BME280;63318;52.406;13.416;2023-03-12T10:28:59;100851.79;;;7.61;65.06
74790;BME280;63318;52.406;13.416;2023-03-12T10:31:31;100846.05;;;7.69;63.86
74790;BME280;63318;52.406;13.416;2023-03-12T10:34:07;100841.29;;;7.79;64.41
74790;BME280;63318;52.406;13.416;2023-03-12T10:36:39;100834.33;;;7.91;64.05
74790;BME280;63318;52.406;13.416;2023-03-12T10:39:13;100830.96;;;8.00;62.11
74790;BME280;63318;52.406;13.416;2023-03-12T10:41:43;100829.34;;;8.06;61.27
74790;BME280;63318;52.406;13.416;2023-03-12T10:44:18;100834.67;;;8.08;61.30
74790;BME280;63318;52.406;13.416;2023-03-12T10:46:54;100830.64;;;8.08;61.42
74790;BME280;63318;52.406;13.416;2023-03-12T10:49:27;100828.81;;;8.00;61.60
74790;BME280;63318;52.406;13.416;2023-03-12T10:51:58;100830.11;;;8.02;62.80
74790;BME280;63318;52.406;13.416;2023-03-12T10:54:34;100827.95;;;8.06;63.03
74790;BME280;63318;52.406;13.416;2023-03-12T10:57:03;100825.10;;;8.12;62.25
74790;BME280;63318;52.406;13.416;2023-03-12T10:59:34;100822.73;;;8.18;62.80
74790;BME280;63318;52.406;13.416;2023-03-12T11:02:17;100818.52;;;8.27;62.48
74790;BME280;63318;52.406;13.416;2023-03-12T11:04:52;100814.27;;;8.32;60.74
74790;BME280;63318;52.406;13.416;2023-03-12T11:07:23;100812.54;;;8.35;62.30
74790;BME280;63318;52.406;13.416;2023-03-12T11:10:14;100809.45;;;8.41;61.72
74790;BME280;63318;52.406;13.416;2023-03-12T11:12:53;100803.57;;;8.44;61.38
74790;BME280;63318;52.406;13.416;2023-03-12T11:15:22;100803.20;;;8.45;60.80
74790;BME280;63318;52.406;13.416;2023-03-12T11:17:51;100792.86;;;8.56;61.45
74790;BME280;63318;52.406;13.416;2023-03-12T11:20:26;100785.39;;;8.71;61.89
74790;BME280;63318;52.406;13.416;2023-03-12T11:22:55;100783.78;;;8.77;61.18
74790;BME280;63318;52.406;13.416;2023-03-12T11:25:26;100785.33;;;8.76;60.49
74790;BME280;63318;52.406;13.416;2023-03-12T11:27:58;100786.16;;;8.70;61.07
74790;BME280;63318;52.406;13.416;2023-03-12T11:30:34;100775.54;;;8.67;60.68
74790;BME280;63318;52.406;13.416;2023-03-12T11:33:04;100782.61;;;8.70;59.95
74790;BME280;63318;52.406;13.416;2023-03-12T11:35:41;100783.48;;;8.65;59.77
74790;BME280;63318;52.406;13.416;2023-03-12T11:38:17;100780.14;;;8.62;58.79
74790;BME280;63318;52.406;13.416;2023-03-12T11:41:02;100774.70;;;8.63;60.05
74790;BME280;63318;52.406;13.416;2023-03-12T11:43:54;100773.80;;;8.65;59.11
74790;BME280;63318;52.406;13.416;2023-03-12T11:46:34;100766.48;;;8.65;59.44
74790;BME280;63318;52.406;13.416;2023-03-12T11:52:19;100764.04;;;8.70;59.93
74790;BME280;63318;52.406;13.416;2023-03-12T11:55:14;100763.39;;;8.71;60.18
74790;BME280;63318;52.406;13.416;2023-03-12T11:57:51;100756.69;;;8.70;59.50
74790;BME280;63318;52.406;13.416;2023-03-12T12:00:27;100752.95;;;8.69;59.48
74790;BME280;63318;52.406;13.416;2023-03-12T12:03:26;100753.55;;;8.62;58.80
74790;BME280;63318;52.406;13.416;2023-03-12T12:06:01;100753.37;;;8.60;59.20
74790;BME280;63318;52.406;13.416;2023-03-12T12:08:46;100750.20;;;8.55;58.04
74790;BME280;63318;52.406;13.416;2023-03-12T12:11:23;100750.07;;;8.52;58.36
74790;BME280;63318;52.406;13.416;2023-03-12T12:14:04;100748.46;;;8.52;56.90
74790;BME280;63318;52.406;13.416;2023-03-12T12:16:46;100729.08;;;8.52;57.65
74790;BME280;63318;52.406;13.416;2023-03-12T12:19:29;100726.13;;;8.50;57.22
74790;BME280;63318;52.406;13.416;2023-03-12T12:22:18;100712.80;;;8.46;57.21
74790;BME280;63318;52.406;13.416;2023-03-12T12:25:06;100705.96;;;8.44;56.20
74790;BME280;63318;52.406;13.416;2023-03-12T12:27:46;100704.23;;;8.32;55.31
74790;BME280;63318;52.406;13.416;2023-03-12T12:30:25;100710.48;;;8.20;55.66
74790;BME280;63318;52.406;13.416;2023-03-12T12:33:02;100713.73;;;8.12;55.41
74790;BME280;63318;52.406;13.416;2023-03-12T12:35:36;100705.06;;;8.10;56.12
74790;BME280;63318;52.406;13.416;2023-03-12T12:38:09;100692.50;;;8.09;55.33
74790;BME280;63318;52.406;13.416;2023-03-12T12:40:42;100682.92;;;8.09;54.83
74790;BME280;63318;52.406;13.416;2023-03-12T12:43:26;100669.66;;;8.06;51.19
74790;BME280;63318;52.406;13.416;2023-03-12T12:45:58;100667.83;;;8.01;53.18
74790;BME280;63318;52.406;13.416;2023-03-12T12:48:27;100652.59;;;7.99;53.38
74790;BME280;63318;52.406;13.416;2023-03-12T12:51:00;100655.36;;;7.89;51.04
74790;BME280;63318;52.406;13.416;2023-03-12T12:53:31;100659.62;;;7.84;53.33
74790;BME280;63318;52.406;13.416;2023-03-12T12:56:12;100656.53;;;7.86;54.16
74790;BME280;63318;52.406;13.416;2023-03-12T12:59:01;100652.23;;;7.93;54.07
74790;BME280;63318;52.406;13.416;2023-03-12T13:01:34;100653.57;;;8.02;54.34
74790;BME280;63318;52.406;13.416;2023-03-12T13:04:08;100652.35;;;8.06;53.73
74790;BME280;63318;52.406;13.416;2023-03-12T13:06:59;100647.35;;;8.04;53.42
74790;BME280;63318;52.406;13.416;2023-03-12T13:09:40;100646.51;;;7.98;53.50